sensor_id;sensor_type;location;lat;lon;timestamp;temperature;humidity
21149;DHT22;10732;51.472;6.466;2022-12-18T00:01:01;-6.90;99.90
21149;DHT22;10732;51.472;6.466;2022-12-18T00:03:34;-6.90;99.90
21149;DHT22;10732;51.472;6.466;2022-12-18T00:05:59;-6.90;99.90
21149;DHT22;10732;51.472;6.466;2022-12-18T00:08:25;-6.80;99.90
21149;DHT22;10732;51.472;6.466;2022-12-18T00:10:51;-6.80;99.90
21149;DHT22;10732;51.472;6.466;2022-12-18T00:13:16;-6.80;99.90
21149;DHT22;10732;51.472;6.466;2022-12-18T00:15:42;-6.70;99.90
21149;DHT22;10732;51.472;6.466;2022-12-18T00:18:07;-6.60;99.90
21149;DHT22;10732;51.472;6.466;2022-12-18T00:20:40;-6.50;99.90
21149;DHT22;10732;51.472;6.466;2022-12-18T00:23:06;-6.40;99.90
21149;DHT22;10732;51.472;6.466;2022-12-18T00:25:34;-6.20;99.90
21149;DHT22;10732;51.472;6.466;2022-12-18T00:28:00;-5.90;99.90
21149;DHT22;10732;51.472;6.466;2022-12-18T00:30:26;-5.80;99.90
21149;DHT22;10732;51.472;6.466;2022-12-18T00:32:51;-5.70;99.90
21149;DHT22;10732;51.472;6.466;2022-12-18T00:35:17;-5.70;99.90
21149;DHT22;10732;51.472;6.466;2022-12-18T00:37:42;-5.60;99.90
21149;DHT22;10732;51.472;6.466;2022-12-18T00:40:09;-5.70;99.90
21149;DHT22;10732;51.472;6.466;2022-12-18T00:42:34;-5.60;99.90
21149;DHT22;10732;51.472;6.466;2022-12-18T00:45:19;-5.60;99.90
21149;DHT22;10732;51.472;6.466;2022-12-18T00:47:45;-5.60;99.90
21149;DHT22;10732;51.472;6.466;2022-12-18T00:50:10;-5.60;99.90
21149;DHT22;10732;51.472;6.466;2022-12-18T00:52:36;-5.60;99.90
21149;DHT22;10732;51.472;6.466;2022-12-18T00:55:01;-5.60;99.90
21149;DHT22;10732;51.472;6.466;2022-12-18T00:57:27;-5.60;99.90
21149;DHT22;10732;51.472;6.466;2022-12-18T00:59:52;-5.50;99.90
21149;DHT22;10732;51.472;6.466;2022-12-18T01:02:18;-5.60;99.90
21149;DHT22;10732;51.472;6.466;2022-12-18T01:04:43;-5.50;99.90
21149;DHT22;10732;51.472;6.466;2022-12-18T01:07:09;-5.50;99.90
21149;DHT22;10732;51.472;6.466;2022-12-18T01:09:34;-5.50;99.90
21149;DHT22;10732;51.472;6.466;2022-12-18T01:12:00;-5.50;99.90
21149;DHT22;10732;51.472;6.466;2022-12-18T01:14:26;-5.60;99.90
21149;DHT22;10732;51.472;6.466;2022-12-18T01:16:51;-5.60;99.90
21149;DHT22;10732;51.472;6.466;2022-12-18T01:19:17;-5.60;99.90
21149;DHT22;10732;51.472;6.466;2022-12-18T01:21:43;-5.50;99.90
21149;DHT22;10732;51.472;6.466;2022-12-18T01:24:11;-5.60;99.90
21149;DHT22;10732;51.472;6.466;2022-12-18T01:26:37;-5.70;99.90
21149;DHT22;10732;51.472;6.466;2022-12-18T01:29:02;-5.70;99.90
21149;DHT22;10732;51.472;6.466;2022-12-18T01:31:31;-5.70;99.90
21149;DHT22;10732;51.472;6.466;2022-12-18T01:33:57;-5.70;99.90
21149;DHT22;10732;51.472;6.466;2022-12-18T01:36:30;-5.60;99.90
21149;DHT22;10732;51.472;6.466;2022-12-18T01:38:55;-5.60;99.90
21149;DHT22;10732;51.472;6.466;2022-12-18T01:41:24;-5.70;99.90
21149;DHT22;10732;51.472;6.466;2022-12-18T01:43:55;-5.70;99.90
21149;DHT22;10732;51.472;6.466;2022-12-18T01:46:23;-5.70;99.90
21149;DHT22;10732;51.472;6.466;2022-12-18T01:48:52;-5.70;99.90
21149;DHT22;10732;51.472;6.466;2022-12-18T01:51:19;-5.70;99.90
21149;DHT22;10732;51.472;6.466;2022-12-18T01:53:46;-5.80;99.90
21149;DHT22;10732;51.472;6.466;2022-12-18T01:56:17;-5.80;99.90
21149;DHT22;10732;51.472;6.466;2022-12-18T01:58:57;-5.90;99.90
21149;DHT22;10732;51.472;6.466;2022-12-18T02:01:25;-5.90;99.90
21149;DHT22;10732;51.472;6.466;2022-12-18T02:03:51;-5.90;99.90
21149;DHT22;10732;51.472;6.466;2022-12-18T02:06:21;-6.00;99.90
21149;DHT22;10732;51.472;6.466;2022-12-18T02:11:47;-6.10;99.90
21149;DHT22;10732;51.472;6.466;2022-12-18T02:14:17;-6.10;99.90
21149;DHT22;10732;51.472;6.466;2022-12-18T02:16:55;-6.10;99.90
21149;DHT22;10732;51.472;6.466;2022-12-18T02:19:44;-6.00;99.90
21149;DHT22;10732;51.472;6.466;2022-12-18T02:22:33;-5.90;99.90
21149;DHT22;10732;51.472;6.466;2022-12-18T02:25:35;-5.80;99.90
21149;DHT22;10732;51.472;6.466;2022-12-18T02:28:08;-5.80;99.90
21149;DHT22;10732;51.472;6.466;2022-12-18T02:30:35;-5.70;99.90
21149;DHT22;10732;51.472;6.466;2022-12-18T02:33:04;-5.80;99.90
21149;DHT22;10732;51.472;6.466;2022-12-18T02:35:32;-5.80;99.90
21149;DHT22;10732;51.472;6.466;2022-12-18T02:37:58;-5.80;99.90
21149;DHT22;10732;51.472;6.466;2022-12-18T02:40:26;-5.70;99.90
21149;DHT22;10732;51.472;6.466;2022-12-18T02:42:52;-5.70;99.90
21149;DHT22;10732;51.472;6.466;2022-12-18T02:45:18;-5.70;99.90
21149;DHT22;10732;51.472;6.466;2022-12-18T02:47:47;-5.60;99.90
21149;DHT22;10732;51.472;6.466;2022-12-18T02:55:41;-5.50;99.90
21149;DHT22;10732;51.472;6.466;2022-12-18T02:58:20;-5.60;99.90
21149;DHT22;10732;51.472;6.466;2022-12-18T03:00:58;-5.50;99.90
21149;DHT22;10732;51.472;6.466;2022-12-18T03:03:29;-5.50;99.90
21149;DHT22;10732;51.472;6.466;2022-12-18T03:06:18;-5.50;99.90
21149;DHT22;10732;51.472;6.466;2022-12-18T03:08:49;-5.50;99.90
21149;DHT22;10732;51.472;6.466;2022-12-18T03:11:16;-5.50;99.90
21149;DHT22;10732;51.472;6.466;2022-12-18T03:14:03;-5.50;99.90
21149;DHT22;10732;51.472;6.466;2022-12-18T03:16:31;-5.40;99.90
21149;DHT22;10732;51.472;6.466;2022-12-18T03:19:05;-5.40;99.90
21149;DHT22;10732;51.472;6.466;2022-12-18T03:21:53;-5.40;99.90
21149;DHT22;10732;51.472;6.466;2022-12-18T03:24:20;-5.40;99.90
21149;DHT22;10732;51.472;6.466;2022-12-18T03:26:47;-5.40;99.90
21149;DHT22;10732;51.472;6.466;2022-12-18T03:32:08;-5.30;99.90
21149;DHT22;10732;51.472;6.466;2022-12-18T03:34:37;-5.30;99.90
21149;DHT22;10732;51.472;6.466;2022-12-18T03:37:05;-5.30;99.90
21149;DHT22;10732;51.472;6.466;2022-12-18T03:39:31;-5.30;99.90
21149;DHT22;10732;51.472;6.466;2022-12-18T03:42:05;-5.30;99.90
21149;DHT22;10732;51.472;6.466;2022-12-18T03:47:26;-5.20;99.90
21149;DHT22;10732;51.472;6.466;2022-12-18T03:50:12;-5.20;99.90
21149;DHT22;10732;51.472;6.466;2022-12-18T03:52:49;-5.20;99.90
21149;DHT22;10732;51.472;6.466;2022-12-18T03:55:18;-5.10;99.90
21149;DHT22;10732;51.472;6.466;2022-12-18T03:57:46;-5.00;99.90
21149;DHT22;10732;51.472;6.466;2022-12-18T04:00:15;-5.10;99.90
21149;DHT22;10732;51.472;6.466;2022-12-18T04:02:50;-5.00;99.90
21149;DHT22;10732;51.472;6.466;2022-12-18T04:05:17;-4.90;99.90
21149;DHT22;10732;51.472;6.466;2022-12-18T04:07:46;-4.80;99.90
21149;DHT22;10732;51.472;6.466;2022-12-18T04:10:13;-4.80;99.90
21149;DHT22;10732;51.472;6.466;2022-12-18T04:12:39;-4.80;99.90
21149;DHT22;10732;51.472;6.466;2022-12-18T04:15:06;-4.90;99.90
21149;DHT22;10732;51.472;6.466;2022-12-18T04:17:32;-4.90;99.90
21149;DHT22;10732;51.472;6.466;2022-12-18T04:19:57;-4.90;99.90
21149;DHT22;10732;51.472;6.466;2022-12-18T04:22:23;-4.90;99.90
21149;DHT22;10732;51.472;6.466;2022-12-18T04:24:48;-4.70;99.90
21149;DHT22;10732;51.472;6.466;2022-12-18T04:27:14;-4.80;99.90
21149;DHT22;10732;51.472;6.466;2022-12-18T04:29:39;-4.70;99.90
21149;DHT22;10732;51.472;6.466;2022-12-18T04:32:05;-4.70;99.90
21149;DHT22;10732;51.472;6.466;2022-12-18T04:34:31;-4.70;99.90
21149;DHT22;10732;51.472;6.466;2022-12-18T04:36:56;-4.60;99.90
21149;DHT22;10732;51.472;6.466;2022-12-18T04:39:22;-4.60;99.90
21149;DHT22;10732;51.472;6.466;2022-12-18T04:41:47;-4.70;99.90
21149;DHT22;10732;51.472;6.466;2022-12-18T04:44:13;-4.50;99.90
21149;DHT22;10732;51.472;6.466;2022-12-18T04:46:39;-4.40;99.90
21149;DHT22;10732;51.472;6.466;2022-12-18T04:49:04;-4.30;99.90
21149;DHT22;10732;51.472;6.466;2022-12-18T04:51:30;-4.20;99.90
21149;DHT22;10732;51.472;6.466;2022-12-18T04:53:55;-4.10;99.90
21149;DHT22;10732;51.472;6.466;2022-12-18T04:56:21;-4.20;99.90
21149;DHT22;10732;51.472;6.466;2022-12-18T04:58:47;-4.20;99.90
21149;DHT22;10732;51.472;6.466;2022-12-18T05:01:14;-4.20;99.90
21149;DHT22;10732;51.472;6.466;2022-12-18T05:03:40;-4.20;99.90
21149;DHT22;10732;51.472;6.466;2022-12-18T05:06:06;-4.20;99.90
21149;DHT22;10732;51.472;6.466;2022-12-18T05:08:32;-4.20;99.90
21149;DHT22;10732;51.472;6.466;2022-12-18T05:11:06;-4.20;99.90
21149;DHT22;10732;51.472;6.466;2022-12-18T05:13:32;-4.20;99.90
21149;DHT22;10732;51.472;6.466;2022-12-18T05:15:57;-4.10;99.90
21149;DHT22;10732;51.472;6.466;2022-12-18T05:18:24;-4.10;99.90
21149;DHT22;10732;51.472;6.466;2022-12-18T05:20:51;-4.10;99.90
21149;DHT22;10732;51.472;6.466;2022-12-18T05:23:16;-4.10;99.90
21149;DHT22;10732;51.472;6.466;2022-12-18T05:25:42;-4.00;99.90
21149;DHT22;10732;51.472;6.466;2022-12-18T05:28:08;-4.00;99.90
21149;DHT22;10732;51.472;6.466;2022-12-18T05:30:33;-4.00;99.90
21149;DHT22;10732;51.472;6.466;2022-12-18T05:32:59;-3.90;99.90
21149;DHT22;10732;51.472;6.466;2022-12-18T05:35:24;-3.90;99.90
21149;DHT22;10732;51.472;6.466;2022-12-18T05:37:50;-3.90;99.90
21149;DHT22;10732;51.472;6.466;2022-12-18T05:40:15;-3.90;99.90
21149;DHT22;10732;51.472;6.466;2022-12-18T05:42:41;-3.90;99.90
21149;DHT22;10732;51.472;6.466;2022-12-18T05:45:07;-3.90;99.90
21149;DHT22;10732;51.472;6.466;2022-12-18T05:47:32;-3.90;99.90
21149;DHT22;10732;51.472;6.466;2022-12-18T05:49:58;-3.90;99.90
21149;DHT22;10732;51.472;6.466;2022-12-18T05:52:23;-4.00;99.90
21149;DHT22;10732;51.472;6.466;2022-12-18T05:54:49;-3.90;99.90
21149;DHT22;10732;51.472;6.466;2022-12-18T05:57:15;-3.90;99.90
21149;DHT22;10732;51.472;6.466;2022-12-18T05:59:40;-4.00;99.90
21149;DHT22;10732;51.472;6.466;2022-12-18T06:02:06;-4.00;99.90
21149;DHT22;10732;51.472;6.466;2022-12-18T06:04:32;-4.00;99.90
21149;DHT22;10732;51.472;6.466;2022-12-18T06:06:58;-4.00;99.90
21149;DHT22;10732;51.472;6.466;2022-12-18T06:09:24;-3.90;99.90
21149;DHT22;10732;51.472;6.466;2022-12-18T06:11:51;-3.90;99.90
21149;DHT22;10732;51.472;6.466;2022-12-18T06:14:17;-3.80;99.90
21149;DHT22;10732;51.472;6.466;2022-12-18T06:16:43;-3.80;99.90
21149;DHT22;10732;51.472;6.466;2022-12-18T06:19:15;-3.80;99.90
21149;DHT22;10732;51.472;6.466;2022-12-18T06:21:41;-3.70;99.90
21149;DHT22;10732;51.472;6.466;2022-12-18T06:24:07;-3.70;99.90
21149;DHT22;10732;51.472;6.466;2022-12-18T06:26:33;-3.60;99.90
21149;DHT22;10732;51.472;6.466;2022-12-18T06:28:59;-3.60;99.90
21149;DHT22;10732;51.472;6.466;2022-12-18T06:31:25;-3.60;99.90
21149;DHT22;10732;51.472;6.466;2022-12-18T06:33:51;-3.60;99.90
21149;DHT22;10732;51.472;6.466;2022-12-18T06:36:17;-3.60;96.20
21149;DHT22;10732;51.472;6.466;2022-12-18T06:38:43;-3.50;84.00
21149;DHT22;10732;51.472;6.466;2022-12-18T06:41:11;-3.50;88.90
21149;DHT22;10732;51.472;6.466;2022-12-18T06:43:37;-3.50;78.20
21149;DHT22;10732;51.472;6.466;2022-12-18T06:46:04;-3.50;69.20
21149;DHT22;10732;51.472;6.466;2022-12-18T06:48:30;-3.40;38.80
21149;DHT22;10732;51.472;6.466;2022-12-18T06:50:55;-3.50;44.60
21149;DHT22;10732;51.472;6.466;2022-12-18T06:53:21;-3.50;61.80
21149;DHT22;10732;51.472;6.466;2022-12-18T06:55:47;-3.50;60.30
21149;DHT22;10732;51.472;6.466;2022-12-18T06:58:12;-3.50;64.20
21149;DHT22;10732;51.472;6.466;2022-12-18T07:00:38;-3.40;70.00
21149;DHT22;10732;51.472;6.466;2022-12-18T07:03:03;-3.50;46.10
21149;DHT22;10732;51.472;6.466;2022-12-18T07:05:29;-3.60;92.90
21149;DHT22;10732;51.472;6.466;2022-12-18T07:07:54;-3.50;48.80
21149;DHT22;10732;51.472;6.466;2022-12-18T07:10:20;-3.50;36.80
21149;DHT22;10732;51.472;6.466;2022-12-18T07:12:46;-3.50;18.10
21149;DHT22;10732;51.472;6.466;2022-12-18T07:15:11;-3.50;29.10
21149;DHT22;10732;51.472;6.466;2022-12-18T07:17:37;-3.50;19.10
21149;DHT22;10732;51.472;6.466;2022-12-18T07:20:03;-3.50;31.50
21149;DHT22;10732;51.472;6.466;2022-12-18T07:22:28;-3.40;23.20
21149;DHT22;10732;51.472;6.466;2022-12-18T07:24:54;-3.30;86.80
21149;DHT22;10732;51.472;6.466;2022-12-18T07:27:21;-3.30;1.00
21149;DHT22;10732;51.472;6.466;2022-12-18T07:29:46;-3.20;1.00
21149;DHT22;10732;51.472;6.466;2022-12-18T07:32:12;-3.20;1.00
21149;DHT22;10732;51.472;6.466;2022-12-18T07:34:37;-3.20;1.00
21149;DHT22;10732;51.472;6.466;2022-12-18T07:37:03;-3.40;1.00
21149;DHT22;10732;51.472;6.466;2022-12-18T07:39:28;-3.30;1.00
21149;DHT22;10732;51.472;6.466;2022-12-18T07:41:54;-3.30;1.00
21149;DHT22;10732;51.472;6.466;2022-12-18T07:44:38;-3.40;1.00
21149;DHT22;10732;51.472;6.466;2022-12-18T07:47:04;-3.40;16.90
21149;DHT22;10732;51.472;6.466;2022-12-18T07:49:30;-3.40;12.50
21149;DHT22;10732;51.472;6.466;2022-12-18T07:51:56;-3.40;1.00
21149;DHT22;10732;51.472;6.466;2022-12-18T07:54:23;-3.40;8.00
21149;DHT22;10732;51.472;6.466;2022-12-18T07:56:49;-3.40;4.50
21149;DHT22;10732;51.472;6.466;2022-12-18T07:59:14;-3.40;30.90
21149;DHT22;10732;51.472;6.466;2022-12-18T08:01:40;-3.40;7.90
21149;DHT22;10732;51.472;6.466;2022-12-18T08:04:05;-3.20;2.80
21149;DHT22;10732;51.472;6.466;2022-12-18T08:06:31;-2.90;1.00
21149;DHT22;10732;51.472;6.466;2022-12-18T08:08:57;-2.40;1.00
21149;DHT22;10732;51.472;6.466;2022-12-18T08:11:26;-2.00;1.00
21149;DHT22;10732;51.472;6.466;2022-12-18T08:13:52;-2.00;1.00
21149;DHT22;10732;51.472;6.466;2022-12-18T08:16:18;-2.10;1.00
21149;DHT22;10732;51.472;6.466;2022-12-18T08:18:44;-2.40;1.00
21149;DHT22;10732;51.472;6.466;2022-12-18T08:21:14;-2.60;1.00
21149;DHT22;10732;51.472;6.466;2022-12-18T08:23:41;-2.60;1.00
21149;DHT22;10732;51.472;6.466;2022-12-18T08:26:07;-2.50;1.00
21149;DHT22;10732;51.472;6.466;2022-12-18T08:28:33;-2.50;1.00
21149;DHT22;10732;51.472;6.466;2022-12-18T08:30:59;-2.40;1.00
21149;DHT22;10732;51.472;6.466;2022-12-18T08:33:25;-2.40;1.00
21149;DHT22;10732;51.472;6.466;2022-12-18T08:35:51;-2.30;1.00
21149;DHT22;10732;51.472;6.466;2022-12-18T08:38:17;-2.20;1.00
21149;DHT22;10732;51.472;6.466;2022-12-18T08:40:42;-2.10;1.00
21149;DHT22;10732;51.472;6.466;2022-12-18T08:43:10;-2.10;1.00
21149;DHT22;10732;51.472;6.466;2022-12-18T08:45:54;-2.00;1.00
21149;DHT22;10732;51.472;6.466;2022-12-18T08:48:20;-1.90;1.00
21149;DHT22;10732;51.472;6.466;2022-12-18T08:50:59;-1.90;1.00
21149;DHT22;10732;51.472;6.466;2022-12-18T08:53:24;-1.80;1.00
21149;DHT22;10732;51.472;6.466;2022-12-18T08:55:50;-1.70;1.00
21149;DHT22;10732;51.472;6.466;2022-12-18T08:58:16;-1.60;1.00
21149;DHT22;10732;51.472;6.466;2022-12-18T09:00:41;-1.50;99.90
21149;DHT22;10732;51.472;6.466;2022-12-18T09:03:17;-1.60;1.00
21149;DHT22;10732;51.472;6.466;2022-12-18T09:05:45;-1.50;1.00
21149;DHT22;10732;51.472;6.466;2022-12-18T09:08:11;-1.30;99.90
21149;DHT22;10732;51.472;6.466;2022-12-18T09:10:46;-1.30;99.90
21149;DHT22;10732;51.472;6.466;2022-12-18T09:13:12;-1.10;99.90
21149;DHT22;10732;51.472;6.466;2022-12-18T09:15:48;-0.80;1.00
21149;DHT22;10732;51.472;6.466;2022-12-18T09:18:16;-0.60;1.00
21149;DHT22;10732;51.472;6.466;2022-12-18T09:20:42;-0.90;1.00
21149;DHT22;10732;51.472;6.466;2022-12-18T09:23:08;0.00;99.90
21149;DHT22;10732;51.472;6.466;2022-12-18T09:25:35;0.50;1.00
21149;DHT22;10732;51.472;6.466;2022-12-18T09:28:02;0.30;1.00
21149;DHT22;10732;51.472;6.466;2022-12-18T09:30:28;0.20;1.00
21149;DHT22;10732;51.472;6.466;2022-12-18T09:32:54;0.50;1.00
21149;DHT22;10732;51.472;6.466;2022-12-18T09:35:20;0.90;99.90
21149;DHT22;10732;51.472;6.466;2022-12-18T09:37:45;0.50;99.90
21149;DHT22;10732;51.472;6.466;2022-12-18T09:40:16;0.30;1.00
21149;DHT22;10732;51.472;6.466;2022-12-18T09:42:46;0.00;99.90
21149;DHT22;10732;51.472;6.466;2022-12-18T09:45:14;0.00;1.00
21149;DHT22;10732;51.472;6.466;2022-12-18T09:47:43;-0.10;1.00
21149;DHT22;10732;51.472;6.466;2022-12-18T09:50:28;-0.20;1.00
21149;DHT22;10732;51.472;6.466;2022-12-18T09:52:57;-0.40;1.00
21149;DHT22;10732;51.472;6.466;2022-12-18T09:55:34;-0.10;1.00
21149;DHT22;10732;51.472;6.466;2022-12-18T09:58:07;-0.10;1.00
21149;DHT22;10732;51.472;6.466;2022-12-18T10:00:37;-0.20;99.90
21149;DHT22;10732;51.472;6.466;2022-12-18T10:03:14;0.00;99.90
21149;DHT22;10732;51.472;6.466;2022-12-18T10:11:43;-0.20;99.90
21149;DHT22;10732;51.472;6.466;2022-12-18T10:14:42;-0.10;99.90
21149;DHT22;10732;51.472;6.466;2022-12-18T10:17:26;0.00;99.90
21149;DHT22;10732;51.472;6.466;2022-12-18T10:20:00;-0.10;99.90
21149;DHT22;10732;51.472;6.466;2022-12-18T10:25:21;0.00;1.00
21149;DHT22;10732;51.472;6.466;2022-12-18T10:27:52;0.40;1.00
21149;DHT22;10732;51.472;6.466;2022-12-18T10:30:20;0.40;1.00
21149;DHT22;10732;51.472;6.466;2022-12-18T10:32:46;0.50;99.90
21149;DHT22;10732;51.472;6.466;2022-12-18T10:35:24;0.30;1.00
21149;DHT22;10732;51.472;6.466;2022-12-18T10:38:20;0.30;1.00
21149;DHT22;10732;51.472;6.466;2022-12-18T10:43:46;0.50;99.90
21149;DHT22;10732;51.472;6.466;2022-12-18T10:46:15;0.60;99.90
21149;DHT22;10732;51.472;6.466;2022-12-18T10:51:35;0.50;1.00
21149;DHT22;10732;51.472;6.466;2022-12-18T10:54:06;0.60;29.00
21149;DHT22;10732;51.472;6.466;2022-12-18T10:56:38;0.70;1.00
21149;DHT22;10732;51.472;6.466;2022-12-18T10:59:10;0.60;74.70
21149;DHT22;10732;51.472;6.466;2022-12-18T11:02:07;0.50;99.90
21149;DHT22;10732;51.472;6.466;2022-12-18T11:04:51;0.50;99.90
21149;DHT22;10732;51.472;6.466;2022-12-18T11:07:17;0.50;1.00
21149;DHT22;10732;51.472;6.466;2022-12-18T11:09:42;0.50;1.00
21149;DHT22;10732;51.472;6.466;2022-12-18T11:12:19;0.50;99.90
21149;DHT22;10732;51.472;6.466;2022-12-18T11:14:50;0.50;99.90
21149;DHT22;10732;51.472;6.466;2022-12-18T11:20:20;0.70;99.90
21149;DHT22;10732;51.472;6.466;2022-12-18T11:22:58;0.70;1.00
21149;DHT22;10732;51.472;6.466;2022-12-18T11:25:24;0.50;99.90
21149;DHT22;10732;51.472;6.466;2022-12-18T11:28:36;0.80;99.90
21149;DHT22;10732;51.472;6.466;2022-12-18T11:34:00;0.70;1.00
21149;DHT22;10732;51.472;6.466;2022-12-18T11:36:32;0.60;1.00
21149;DHT22;10732;51.472;6.466;2022-12-18T11:39:00;0.50;84.50
21149;DHT22;10732;51.472;6.466;2022-12-18T11:44:50;0.30;99.90
21149;DHT22;10732;51.472;6.466;2022-12-18T11:47:25;0.20;1.00
21149;DHT22;10732;51.472;6.466;2022-12-18T11:49:55;0.30;99.90
21149;DHT22;10732;51.472;6.466;2022-12-18T11:52:35;0.30;1.00
21149;DHT22;10732;51.472;6.466;2022-12-18T11:55:21;0.40;99.90
21149;DHT22;10732;51.472;6.466;2022-12-18T12:00:20;0.30;99.90
21149;DHT22;10732;51.472;6.466;2022-12-18T12:03:22;0.20;99.90
21149;DHT22;10732;51.472;6.466;2022-12-18T12:09:07;0.30;99.90
21149;DHT22;10732;51.472;6.466;2022-12-18T12:17:30;0.30;99.90
21149;DHT22;10732;51.472;6.466;2022-12-18T12:25:40;0.40;1.00
21149;DHT22;10732;51.472;6.466;2022-12-18T12:28:41;0.30;99.90
21149;DHT22;10732;51.472;6.466;2022-12-18T12:34:22;0.30;52.60
21149;DHT22;10732;51.472;6.466;2022-12-18T12:36:53;0.40;99.90
21149;DHT22;10732;51.472;6.466;2022-12-18T12:39:26;0.40;99.90
21149;DHT22;10732;51.472;6.466;2022-12-18T12:41:54;0.40;1.00
21149;DHT22;10732;51.472;6.466;2022-12-18T12:44:46;0.30;99.90
21149;DHT22;10732;51.472;6.466;2022-12-18T12:47:18;0.40;99.90
21149;DHT22;10732;51.472;6.466;2022-12-18T12:49:47;0.40;21.30
21149;DHT22;10732;51.472;6.466;2022-12-18T12:52:18;0.40;99.90
21149;DHT22;10732;51.472;6.466;2022-12-18T12:54:47;0.40;99.90
21149;DHT22;10732;51.472;6.466;2022-12-18T13:02:59;0.40;1.00
21149;DHT22;10732;51.472;6.466;2022-12-18T13:08:30;0.30;99.90
21149;DHT22;10732;51.472;6.466;2022-12-18T13:10:58;0.20;1.00
21149;DHT22;10732;51.472;6.466;2022-12-18T13:13:56;0.30;1.00
21149;DHT22;10732;51.472;6.466;2022-12-18T13:16:25;0.40;99.90
21149;DHT22;10732;51.472;6.466;2022-12-18T13:18:54;0.30;1.00
21149;DHT22;10732;51.472;6.466;2022-12-18T13:21:27;0.30;99.90
21149;DHT22;10732;51.472;6.466;2022-12-18T13:23:53;0.30;95.40
21149;DHT22;10732;51.472;6.466;2022-12-18T13:31:11;0.40;99.90
21149;DHT22;10732;51.472;6.466;2022-12-18T13:33:45;0.40;99.90
21149;DHT22;10732;51.472;6.466;2022-12-18T13:38:43;0.20;1.00
21149;DHT22;10732;51.472;6.466;2022-12-18T13:43:45;0.30;99.90
21149;DHT22;10732;51.472;6.466;2022-12-18T13:48:52;0.20;99.90
21149;DHT22;10732;51.472;6.466;2022-12-18T13:51:19;0.20;1.00
21149;DHT22;10732;51.472;6.466;2022-12-18T13:53:59;0.20;1.00
21149;DHT22;10732;51.472;6.466;2022-12-18T13:56:30;0.20;1.00
21149;DHT22;10732;51.472;6.466;2022-12-18T14:01:50;0.20;99.90
21149;DHT22;10732;51.472;6.466;2022-12-18T14:04:21;0.20;1.00
21149;DHT22;10732;51.472;6.466;2022-12-18T14:06:49;0.20;99.90
21149;DHT22;10732;51.472;6.466;2022-12-18T14:09:27;0.10;1.00
21149;DHT22;10732;51.472;6.466;2022-12-18T14:11:54;0.10;1.00
21149;DHT22;10732;51.472;6.466;2022-12-18T14:14:43;0.10;99.90
21149;DHT22;10732;51.472;6.466;2022-12-18T14:17:10;0.00;1.00
21149;DHT22;10732;51.472;6.466;2022-12-18T14:19:37;0.00;1.00
21149;DHT22;10732;51.472;6.466;2022-12-18T14:22:03;0.00;1.00
21149;DHT22;10732;51.472;6.466;2022-12-18T14:24:28;0.10;1.00
21149;DHT22;10732;51.472;6.466;2022-12-18T14:27:22;0.10;67.00
21149;DHT22;10732;51.472;6.466;2022-12-18T14:29:49;0.00;99.90
21149;DHT22;10732;51.472;6.466;2022-12-18T14:32:19;0.00;99.90
21149;DHT22;10732;51.472;6.466;2022-12-18T14:34:52;0.00;40.00
21149;DHT22;10732;51.472;6.466;2022-12-18T14:37:23;0.00;99.90
21149;DHT22;10732;51.472;6.466;2022-12-18T14:40:00;-0.10;99.90
21149;DHT22;10732;51.472;6.466;2022-12-18T14:42:27;-0.10;80.90
21149;DHT22;10732;51.472;6.466;2022-12-18T14:47:58;-0.10;99.90
21149;DHT22;10732;51.472;6.466;2022-12-18T14:50:24;-0.10;99.90
21149;DHT22;10732;51.472;6.466;2022-12-18T14:52:49;-0.10;99.90
21149;DHT22;10732;51.472;6.466;2022-12-18T14:55:19;-0.10;1.00
21149;DHT22;10732;51.472;6.466;2022-12-18T14:57:52;-0.10;1.00
21149;DHT22;10732;51.472;6.466;2022-12-18T15:00:22;-0.20;99.90
21149;DHT22;10732;51.472;6.466;2022-12-18T15:02:52;-0.20;36.60
21149;DHT22;10732;51.472;6.466;2022-12-18T15:05:29;-0.20;99.90
21149;DHT22;10732;51.472;6.466;2022-12-18T15:07:58;-0.20;99.90
21149;DHT22;10732;51.472;6.466;2022-12-18T15:10:26;-0.20;99.90
21149;DHT22;10732;51.472;6.466;2022-12-18T15:20:54;-0.20;99.90
21149;DHT22;10732;51.472;6.466;2022-12-18T15:26:10;-0.40;1.00
21149;DHT22;10732;51.472;6.466;2022-12-18T15:33:40;-0.30;1.00
21149;DHT22;10732;51.472;6.466;2022-12-18T15:36:11;-0.40;1.00
21149;DHT22;10732;51.472;6.466;2022-12-18T15:38:37;-0.30;1.00
21149;DHT22;10732;51.472;6.466;2022-12-18T15:41:03;-0.40;1.00
21149;DHT22;10732;51.472;6.466;2022-12-18T15:43:32;-0.40;99.90
21149;DHT22;10732;51.472;6.466;2022-12-18T15:46:07;-0.40;99.90
21149;DHT22;10732;51.472;6.466;2022-12-18T15:48:37;-0.40;99.90
21149;DHT22;10732;51.472;6.466;2022-12-18T15:51:07;-0.50;1.00
21149;DHT22;10732;51.472;6.466;2022-12-18T15:53:38;-0.50;1.00
21149;DHT22;10732;51.472;6.466;2022-12-18T15:56:04;-0.50;1.00
21149;DHT22;10732;51.472;6.466;2022-12-18T15:58:51;-0.50;1.00
21149;DHT22;10732;51.472;6.466;2022-12-18T16:01:18;-0.50;1.00
21149;DHT22;10732;51.472;6.466;2022-12-18T16:03:43;-0.60;1.00
21149;DHT22;10732;51.472;6.466;2022-12-18T16:06:09;-0.60;1.00
21149;DHT22;10732;51.472;6.466;2022-12-18T16:08:35;-0.60;1.00
21149;DHT22;10732;51.472;6.466;2022-12-18T16:11:01;-0.60;99.90
21149;DHT22;10732;51.472;6.466;2022-12-18T16:13:26;-0.60;99.90
21149;DHT22;10732;51.472;6.466;2022-12-18T16:15:52;-0.60;99.90
21149;DHT22;10732;51.472;6.466;2022-12-18T16:18:18;-0.50;1.00
21149;DHT22;10732;51.472;6.466;2022-12-18T16:20:43;-0.50;99.90
21149;DHT22;10732;51.472;6.466;2022-12-18T16:23:09;-0.60;99.90
21149;DHT22;10732;51.472;6.466;2022-12-18T16:25:34;-0.60;1.00
21149;DHT22;10732;51.472;6.466;2022-12-18T16:28:00;-0.60;1.00
21149;DHT22;10732;51.472;6.466;2022-12-18T16:30:28;-0.50;1.00
21149;DHT22;10732;51.472;6.466;2022-12-18T16:32:59;-0.60;1.00
21149;DHT22;10732;51.472;6.466;2022-12-18T16:35:26;-0.60;99.90
21149;DHT22;10732;51.472;6.466;2022-12-18T16:37:52;-0.60;99.90
21149;DHT22;10732;51.472;6.466;2022-12-18T16:40:18;-0.60;1.00
21149;DHT22;10732;51.472;6.466;2022-12-18T16:42:45;-0.60;99.90
21149;DHT22;10732;51.472;6.466;2022-12-18T16:45:13;-0.70;99.90
21149;DHT22;10732;51.472;6.466;2022-12-18T16:47:39;-0.70;99.90
21149;DHT22;10732;51.472;6.466;2022-12-18T16:50:05;-0.70;99.90
21149;DHT22;10732;51.472;6.466;2022-12-18T16:52:32;-0.70;1.00
21149;DHT22;10732;51.472;6.466;2022-12-18T16:54:58;-0.70;1.00
21149;DHT22;10732;51.472;6.466;2022-12-18T16:57:23;-0.70;26.30
21149;DHT22;10732;51.472;6.466;2022-12-18T16:59:49;-0.70;81.90
21149;DHT22;10732;51.472;6.466;2022-12-18T17:02:17;-0.70;99.90
21149;DHT22;10732;51.472;6.466;2022-12-18T17:04:43;-0.70;99.90
21149;DHT22;10732;51.472;6.466;2022-12-18T17:07:10;-0.70;99.90
21149;DHT22;10732;51.472;6.466;2022-12-18T17:09:36;-0.60;1.00
21149;DHT22;10732;51.472;6.466;2022-12-18T17:12:02;-0.70;1.00
21149;DHT22;10732;51.472;6.466;2022-12-18T17:14:28;-0.70;99.90
21149;DHT22;10732;51.472;6.466;2022-12-18T17:16:54;-0.70;1.00
21149;DHT22;10732;51.472;6.466;2022-12-18T17:19:22;-0.70;1.00
21149;DHT22;10732;51.472;6.466;2022-12-18T17:21:49;-0.70;94.50
21149;DHT22;10732;51.472;6.466;2022-12-18T17:24:15;-0.60;1.00
21149;DHT22;10732;51.472;6.466;2022-12-18T17:26:41;-0.60;1.00
21149;DHT22;10732;51.472;6.466;2022-12-18T17:29:07;-0.70;1.00
21149;DHT22;10732;51.472;6.466;2022-12-18T17:31:33;-0.70;1.00
21149;DHT22;10732;51.472;6.466;2022-12-18T17:34:01;-0.70;1.00